Time;durP1;ratioP1;P1;durP2;ratioP2;P2;SDS_P1;SDS_P2;PMS_P1;PMS_P2;Temp;Humidity;BMP_temperature;BMP_pressure;BME280_temperature;BME280_humidity;BME280_pressure;Samples;Min_cycle;Max_cycle;Signal;HPM_P1;HPM_P2
2023/08/31 00:00:45;;;;;;;4.77;4.67;;;15.60;73.20;;;;;;6213717;28;20242;-86
2023/08/31 00:03:49;;;;;;;5.50;5.30;;;15.70;73.20;;;;;;6204040;28;20239;-86
2023/08/31 00:06:52;;;;;;;5.00;4.70;;;15.70;73.10;;;;;;6208469;28;20868;-85
2023/08/31 00:09:56;;;;;;;5.10;5.00;;;15.80;72.90;;;;;;6206278;28;20853;-84
2023/08/31 00:12:59;;;;;;;4.07;3.97;;;15.80;73.00;;;;;;6197918;28;20771;-86
2023/08/31 00:16:12;;;;;;;5.40;5.10;;;15.70;73.00;;;;;;6212284;28;20534;-86
2023/08/31 00:19:15;;;;;;;4.17;4.07;;;15.80;73.00;;;;;;6209695;28;20248;-84
2023/08/31 00:22:19;;;;;;;4.33;4.23;;;15.70;73.00;;;;;;6206196;28;20370;-85
2023/08/31 00:25:22;;;;;;;3.73;3.73;;;15.70;73.10;;;;;;6198203;28;20286;-87
2023/08/31 00:28:28;;;;;;;4.50;4.30;;;15.70;73.10;;;;;;6214022;28;20712;-86
2023/08/31 00:31:33;;;;;;;4.30;4.10;;;15.70;73.20;;;;;;6203601;28;20390;-85
2023/08/31 00:34:37;;;;;;;4.67;4.57;;;15.70;73.20;;;;;;6200922;28;20258;-85
2023/08/31 00:37:40;;;;;;;4.43;4.23;;;15.60;73.30;;;;;;6214030;28;20258;-85
2023/08/31 00:40:45;;;;;;;4.13;4.03;;;15.60;73.30;;;;;;6194642;28;20236;-84
2023/08/31 00:43:49;;;;;;;4.80;4.60;;;15.60;73.20;;;;;;6227302;28;20328;-85
2023/08/31 00:46:54;;;;;;;4.70;4.43;;;15.60;73.30;;;;;;6205813;28;20247;-85
2023/08/31 00:49:57;;;;;;;4.73;4.63;;;15.60;73.30;;;;;;6189965;28;20271;-85
2023/08/31 00:53:01;;;;;;;4.87;4.70;;;15.60;73.20;;;;;;6212989;28;20508;-85
2023/08/31 00:56:05;;;;;;;4.70;4.50;;;15.60;73.20;;;;;;6194001;28;20243;-87
2023/08/31 00:59:09;;;;;;;5.13;4.93;;;15.60;73.40;;;;;;6206039;28;20267;-84
2023/08/31 01:02:23;;;;;;;5.10;4.90;;;15.60;73.40;;;;;;6207034;28;20236;-84
2023/08/31 01:05:37;;;;;;;4.83;4.73;;;15.60;73.50;;;;;;6204465;28;20309;-86
2023/08/31 01:08:52;;;;;;;4.67;4.57;;;15.50;73.70;;;;;;6212346;28;20243;-84
2023/08/31 01:12:03;;;;;;;5.33;5.13;;;15.50;73.70;;;;;;6205362;28;20240;-85
2023/08/31 01:15:12;;;;;;;5.17;4.97;;;15.40;74.10;;;;;;6197320;28;20231;-84
2023/08/31 01:18:18;;;;;;;5.13;4.93;;;15.40;74.30;;;;;;6200876;28;20242;-85
2023/08/31 01:21:28;;;;;;;5.23;5.00;;;15.30;74.60;;;;;;6199876;28;20711;-86
2023/08/31 01:24:35;;;;;;;5.33;5.20;;;15.30;75.00;;;;;;6209274;28;20247;-86
2023/08/31 01:27:39;;;;;;;6.30;6.00;;;15.30;75.30;;;;;;6213410;28;20330;-85
2023/08/31 01:30:42;;;;;;;6.33;6.00;;;15.30;76.00;;;;;;6206289;28;20239;-85
2023/08/31 01:33:45;;;;;;;5.93;5.67;;;15.20;76.10;;;;;;6191795;28;20246;-85
2023/08/31 01:36:57;;;;;;;6.67;6.27;;;15.20;76.40;;;;;;6203233;28;20246;-85
2023/08/31 01:40:07;;;;;;;6.03;5.83;;;15.20;76.50;;;;;;6209177;28;20251;-86
2023/08/31 01:43:12;;;;;;;6.37;6.07;;;15.20;76.50;;;;;;6205113;28;20389;-86
2023/08/31 01:46:17;;;;;;;4.77;4.67;;;15.20;76.50;;;;;;6212512;28;20251;-85
2023/08/31 01:49:21;;;;;;;5.10;4.90;;;15.10;76.30;;;;;;6190566;28;20231;-86
2023/08/31 01:52:24;;;;;;;4.90;4.70;;;15.00;76.00;;;;;;6202360;28;20236;-86
2023/08/31 01:55:29;;;;;;;5.17;4.97;;;15.00;76.00;;;;;;6199205;28;20235;-86
2023/08/31 01:58:32;;;;;;;5.23;4.93;;;15.00;76.30;;;;;;6208278;28;20826;-86
2023/08/31 02:01:36;;;;;;;5.17;5.07;;;15.00;76.50;;;;;;6202285;28;20788;-86
2023/08/31 02:04:39;;;;;;;4.57;4.37;;;14.90;76.50;;;;;;6202513;28;20289;-85
2023/08/31 02:07:42;;;;;;;4.90;4.30;;;14.90;76.80;;;;;;6200431;28;20239;-85
2023/08/31 02:10:48;;;;;;;4.20;4.10;;;14.80;76.90;;;;;;6197735;28;20238;-85
2023/08/31 02:13:51;;;;;;;4.00;3.90;;;14.70;77.00;;;;;;6201995;28;20231;-86
2023/08/31 02:16:54;;;;;;;3.93;3.83;;;14.70;77.20;;;;;;6205686;28;20235;-85
2023/08/31 02:19:57;;;;;;;3.83;3.63;;;14.60;77.50;;;;;;6203843;28;20800;-85
2023/08/31 02:23:00;;;;;;;3.50;3.50;;;14.50;77.40;;;;;;6210315;28;20242;-85
2023/08/31 02:26:05;;;;;;;3.67;3.53;;;14.30;77.20;;;;;;6203279;28;20850;-86
2023/08/31 02:29:08;;;;;;;3.40;3.30;;;14.30;77.20;;;;;;6194966;28;20258;-83
2023/08/31 02:32:11;;;;;;;3.50;3.50;;;14.30;77.30;;;;;;6197368;28;20244;-82
2023/08/31 02:35:15;;;;;;;3.67;3.47;;;14.20;76.90;;;;;;6211909;28;20231;-85
2023/08/31 02:38:18;;;;;;;3.40;3.30;;;14.20;76.70;;;;;;6208803;28;20635;-82
2023/08/31 02:41:23;;;;;;;3.80;3.70;;;14.10;76.90;;;;;;6207438;28;20239;-84
2023/08/31 02:44:26;;;;;;;3.83;3.73;;;14.10;76.90;;;;;;6212291;28;20232;-85
2023/08/31 02:47:29;;;;;;;3.10;3.10;;;14.10;76.70;;;;;;6210681;28;20254;-85
2023/08/31 02:50:32;;;;;;;3.43;3.33;;;14.00;76.90;;;;;;6206844;28;20235;-86
2023/08/31 02:53:36;;;;;;;3.83;3.73;;;14.00;77.20;;;;;;6208652;28;20243;-84
2023/08/31 02:56:40;;;;;;;3.47;3.40;;;13.90;77.30;;;;;;6212065;28;20297;-87
2023/08/31 02:59:44;;;;;;;3.43;3.43;;;13.90;77.30;;;;;;6207115;28;20239;-85
2023/08/31 03:02:47;;;;;;;3.90;3.90;;;13.90;77.30;;;;;;6202560;28;20323;-85
2023/08/31 03:05:58;;;;;;;3.93;3.83;;;13.90;77.70;;;;;;6209881;28;20247;-85
2023/08/31 03:09:02;;;;;;;3.67;3.57;;;13.90;77.70;;;;;;6203382;28;20247;-87
2023/08/31 03:12:07;;;;;;;4.33;4.03;;;13.90;78.00;;;;;;6199125;28;20847;-87
2023/08/31 03:15:11;;;;;;;3.53;3.43;;;13.90;77.90;;;;;;6194343;28;20597;-86
2023/08/31 03:18:14;;;;;;;3.80;3.70;;;13.90;77.90;;;;;;6207682;28;20247;-86
2023/08/31 03:21:17;;;;;;;3.97;3.50;;;13.90;77.80;;;;;;6215084;28;20231;-86
2023/08/31 03:24:20;;;;;;;3.43;3.33;;;13.90;77.60;;;;;;6206380;28;20239;-85
2023/08/31 03:27:25;;;;;;;3.83;3.63;;;13.90;77.60;;;;;;6211650;28;20224;-83
2023/08/31 03:30:28;;;;;;;3.63;3.63;;;13.90;77.50;;;;;;6194216;28;20236;-85
2023/08/31 03:33:32;;;;;;;3.20;3.10;;;13.80;77.50;;;;;;6196059;28;20239;-85
2023/08/31 03:36:35;;;;;;;3.60;3.50;;;13.70;77.50;;;;;;6205048;28;20301;-86
2023/08/31 03:39:38;;;;;;;3.80;3.60;;;13.70;77.60;;;;;;6209144;28;20762;-86
2023/08/31 03:42:43;;;;;;;3.80;3.70;;;13.70;77.60;;;;;;6209315;28;20250;-86
2023/08/31 03:45:49;;;;;;;4.10;3.90;;;13.70;77.70;;;;;;6202399;28;20745;-86
2023/08/31 03:48:52;;;;;;;3.70;3.60;;;13.70;77.70;;;;;;6203622;28;20288;-86
2023/08/31 03:51:55;;;;;;;4.00;3.90;;;13.70;77.80;;;;;;6204733;28;20671;-85
2023/08/31 03:54:58;;;;;;;4.03;3.83;;;13.70;78.00;;;;;;6209946;28;20241;-84
2023/08/31 03:58:05;;;;;;;3.83;3.73;;;13.70;78.30;;;;;;6203395;28;20851;-85
2023/08/31 04:01:14;;;;;;;4.70;4.60;;;13.70;78.00;;;;;;6214738;28;20639;-85
2023/08/31 04:04:17;;;;;;;5.40;5.00;;;13.70;78.30;;;;;;6205299;28;20238;-87
2023/08/31 04:07:23;;;;;;;5.43;5.03;;;13.70;78.50;;;;;;6213155;28;20305;-87
2023/08/31 04:10:26;;;;;;;5.83;5.60;;;13.70;78.90;;;;;;6207295;28;20243;-87
2023/08/31 04:13:39;;;;;;;6.53;6.10;;;13.60;79.40;;;;;;6201554;28;20258;-85
2023/08/31 04:16:42;;;;;;;5.53;5.23;;;13.60;79.40;;;;;;6204889;28;20309;-83
2023/08/31 04:19:48;;;;;;;6.93;6.43;;;13.50;79.90;;;;;;6207518;28;20239;-85
2023/08/31 04:22:53;;;;;;;6.47;6.17;;;13.50;80.10;;;;;;6191853;28;20223;-85
2023/08/31 04:25:57;;;;;;;6.03;5.73;;;13.50;80.40;;;;;;6199163;28;20235;-86
2023/08/31 04:29:05;;;;;;;7.13;6.63;;;13.50;80.30;;;;;;6202736;28;20236;-86
2023/08/31 04:32:10;;;;;;;6.80;6.40;;;13.50;80.50;;;;;;6200080;28;20247;-87
2023/08/31 04:35:18;;;;;;;8.07;7.47;;;13.50;80.60;;;;;;6189681;28;20301;-87
2023/08/31 04:38:28;;;;;;;7.60;7.20;;;13.50;80.80;;;;;;6217540;28;20239;-85
2023/08/31 04:41:31;;;;;;;7.97;7.47;;;13.50;80.80;;;;;;6227697;28;20246;-86
2023/08/31 04:44:37;;;;;;;8.90;8.20;;;13.50;80.80;;;;;;6184868;28;20236;-85
2023/08/31 04:47:41;;;;;;;7.83;7.23;;;13.50;80.90;;;;;;6205265;28;20795;-85
2023/08/31 04:50:44;;;;;;;8.33;7.73;;;13.50;81.00;;;;;;6205697;28;20247;-84
2023/08/31 04:53:48;;;;;;;7.83;7.43;;;13.60;80.80;;;;;;6187912;28;20392;-84
2023/08/31 04:56:54;;;;;;;8.87;8.20;;;13.60;81.00;;;;;;6212570;28;20747;-85
2023/08/31 05:00:03;;;;;;;9.80;9.10;;;13.60;80.90;;;;;;6208131;28;20316;-84
2023/08/31 05:03:32;;;;;;;8.57;7.97;;;13.60;81.20;;;;;;6192326;28;20750;-86
2023/08/31 05:06:35;;;;;;;9.43;8.73;;;13.50;81.50;;;;;;6193150;28;20239;-81
2023/08/31 05:09:39;;;;;;;9.17;8.57;;;13.60;81.70;;;;;;6207582;28;20897;-85
2023/08/31 05:12:54;;;;;;;10.43;9.63;;;13.60;81.60;;;;;;6199999;28;20234;-84
2023/08/31 05:16:02;;;;;;;9.37;8.67;;;13.60;81.50;;;;;;6196497;28;20736;-82
2023/08/31 05:19:15;;;;;;;9.37;8.57;;;13.70;81.50;;;;;;6194585;28;20243;-83
2023/08/31 05:22:29;;;;;;;9.27;8.57;;;13.70;81.30;;;;;;6211626;28;20235;-83
2023/08/31 05:25:53;;;;;;;9.87;9.17;;;13.70;81.50;;;;;;6170956;28;20249;-85
2023/08/31 05:28:56;;;;;;;10.70;9.67;;;13.80;81.30;;;;;;6194483;28;20262;-86
2023/08/31 05:32:01;;;;;;;9.23;8.53;;;13.80;81.20;;;;;;6212939;28;20322;-85
2023/08/31 05:35:07;;;;;;;9.80;9.10;;;13.90;81.10;;;;;;6210159;28;20266;-84
2023/08/31 05:38:12;;;;;;;10.87;10.03;;;13.80;81.10;;;;;;6209930;28;20389;-85
2023/08/31 05:41:16;;;;;;;9.67;8.97;;;13.80;81.20;;;;;;6202747;28;20242;-85
2023/08/31 05:44:19;;;;;;;10.40;9.60;;;13.90;81.30;;;;;;6204683;28;20359;-85
2023/08/31 05:47:27;;;;;;;10.90;9.83;;;13.80;81.00;;;;;;6192017;28;20250;-86
2023/08/31 05:50:33;;;;;;;10.80;8.90;;;13.80;81.10;;;;;;6202270;28;20238;-86
2023/08/31 05:53:37;;;;;;;10.20;9.47;;;13.80;81.30;;;;;;6184060;28;20266;-86
2023/08/31 05:56:41;;;;;;;10.53;9.73;;;13.80;81.30;;;;;;6212700;28;20716;-84
2023/08/31 05:59:44;;;;;;;10.97;10.07;;;13.90;80.80;;;;;;6206928;28;20333;-86
2023/08/31 06:02:48;;;;;;;10.77;9.87;;;13.80;80.70;;;;;;6207002;28;20330;-87
2023/08/31 06:05:53;;;;;;;10.80;9.80;;;13.90;80.50;;;;;;6205500;28;20231;-85
2023/08/31 06:08:57;;;;;;;10.17;9.47;;;13.90;80.70;;;;;;6205674;28;20722;-86
2023/08/31 06:12:01;;;;;;;10.20;9.40;;;13.90;80.70;;;;;;6200519;28;20239;-86
2023/08/31 06:15:05;;;;;;;9.60;9.00;;;14.00;80.70;;;;;;6205427;28;20731;-86
2023/08/31 06:18:38;;;;;;;10.47;9.47;;;14.10;79.90;;;;;;6211151;28;20239;-84
2023/08/31 06:21:50;;;;;;;10.83;9.87;;;14.10;79.70;;;;;;6181550;28;20230;-85
2023/08/31 06:24:57;;;;;;;9.97;9.07;;;14.00;80.00;;;;;;6204500;28;20708;-83
2023/08/31 06:28:08;;;;;;;10.57;9.73;;;14.00;79.80;;;;;;6224530;28;20638;-83
2023/08/31 06:31:32;;;;;;;9.10;8.40;;;14.00;79.80;;;;;;6184035;28;20314;-84
2023/08/31 06:34:54;;;;;;;11.30;10.30;;;14.10;79.80;;;;;;6155372;28;20790;-84
2023/08/31 06:38:25;;;;;;;10.17;9.37;;;14.10;79.20;;;;;;6193108;28;20256;-86
2023/08/31 06:41:42;;;;;;;10.30;9.40;;;14.20;78.90;;;;;;6153258;28;20356;-84
2023/08/31 06:48:15;;;;;;;10.03;9.03;;;14.30;79.20;;;;;;6188756;28;20775;-84
2023/08/31 06:51:29;;;;;;;9.77;8.97;;;14.40;78.60;;;;;;6173143;28;20422;-85
2023/08/31 06:54:54;;;;;;;11.17;10.33;;;14.50;78.00;;;;;;6209872;28;20251;-84
2023/08/31 06:58:07;;;;;;;9.77;9.17;;;14.40;77.80;;;;;;6205607;28;20239;-83
2023/08/31 07:01:29;;;;;;;10.70;9.60;;;14.40;77.80;;;;;;6154857;28;20889;-84
2023/08/31 07:04:52;;;;;;;10.10;9.30;;;14.50;77.90;;;;;;6200587;28;20245;-84
2023/08/31 07:12:06;;;;;;;8.93;8.07;;;14.30;77.40;;;;;;6187207;28;20237;-85
2023/08/31 07:15:19;;;;;;;8.80;8.00;;;14.40;77.00;;;;;;6184866;28;20246;-85
2023/08/31 07:18:47;;;;;;;8.67;7.93;;;14.40;76.90;;;;;;6206162;28;20265;-86
2023/08/31 07:22:41;;;;;;;9.77;7.93;;;14.40;76.90;;;;;;6168778;28;20231;-86
2023/08/31 07:26:01;;;;;;;7.97;7.47;;;14.40;76.70;;;;;;6183149;28;20331;-85
2023/08/31 07:29:08;;;;;;;9.40;7.23;;;14.50;76.10;;;;;;6181798;28;20258;-86
2023/08/31 07:32:30;;;;;;;7.83;7.20;;;14.50;76.20;;;;;;6180422;28;20259;-84
2023/08/31 07:36:09;;;;;;;7.23;6.90;;;14.60;76.00;;;;;;6173935;28;20244;-84
2023/08/31 07:39:37;;;;;;;8.17;7.50;;;14.60;75.90;;;;;;6168945;28;20704;-85
2023/08/31 07:42:43;;;;;;;6.27;6.00;;;14.70;76.20;;;;;;6215632;28;20239;-86
2023/08/31 07:45:46;;;;;;;7.37;6.97;;;14.70;75.50;;;;;;6204875;28;20842;-86
2023/08/31 07:48:53;;;;;;;7.03;6.43;;;14.70;75.30;;;;;;6211043;28;20250;-84
2023/08/31 07:52:08;;;;;;;7.50;6.97;;;14.80;75.60;;;;;;6201251;28;20239;-83
2023/08/31 07:55:11;;;;;;;7.17;6.67;;;14.80;75.00;;;;;;6199924;28;20243;-84
2023/08/31 07:58:16;;;;;;;7.60;7.10;;;14.70;75.10;;;;;;6214945;28;20755;-85
2023/08/31 08:01:22;;;;;;;7.30;6.60;;;14.70;75.00;;;;;;6206167;28;20287;-85
2023/08/31 08:04:26;;;;;;;6.87;5.80;;;14.70;73.80;;;;;;6199116;28;20242;-83
2023/08/31 08:07:30;;;;;;;6.33;5.83;;;14.60;74.10;;;;;;6215947;28;20848;-85
2023/08/31 08:10:33;;;;;;;6.07;5.57;;;14.70;73.90;;;;;;6197695;28;20903;-85
2023/08/31 08:13:40;;;;;;;5.77;5.27;;;14.70;73.20;;;;;;6211359;28;20901;-84
2023/08/31 08:16:45;;;;;;;7.33;5.37;;;14.70;72.70;;;;;;6207896;28;20288;-85
2023/08/31 08:19:48;;;;;;;8.63;4.83;;;14.70;72.70;;;;;;6206840;28;20936;-85
2023/08/31 08:22:52;;;;;;;5.03;4.63;;;15.00;72.50;;;;;;6212603;28;20320;-83
2023/08/31 08:25:55;;;;;;;4.93;4.43;;;15.20;71.50;;;;;;6221702;28;20242;-85
2023/08/31 08:29:00;;;;;;;4.70;4.30;;;15.50;70.70;;;;;;6199605;28;20238;-86
2023/08/31 08:32:05;;;;;;;5.10;4.70;;;15.90;70.10;;;;;;6204266;28;20239;-82
2023/08/31 08:35:09;;;;;;;4.70;4.50;;;15.80;69.60;;;;;;6208495;28;20236;-84
2023/08/31 08:38:12;;;;;;;4.67;4.33;;;15.70;69.90;;;;;;6205164;28;20251;-85
2023/08/31 08:41:18;;;;;;;4.60;4.20;;;15.60;70.50;;;;;;6212948;28;20264;-85
2023/08/31 08:44:26;;;;;;;3.57;3.40;;;15.80;70.70;;;;;;6214108;28;20257;-85
2023/08/31 08:47:30;;;;;;;3.93;3.73;;;15.80;69.00;;;;;;6205614;28;20495;-84
2023/08/31 08:50:35;;;;;;;3.87;3.57;;;15.80;68.50;;;;;;6205938;28;20250;-85
2023/08/31 08:53:39;;;;;;;4.00;3.70;;;15.80;68.30;;;;;;6190376;28;20243;-85
2023/08/31 08:56:42;;;;;;;5.87;3.40;;;15.80;67.80;;;;;;6222418;28;20250;-84
2023/08/31 08:59:47;;;;;;;3.30;3.10;;;15.90;67.70;;;;;;6213454;28;20245;-86
2023/08/31 09:02:50;;;;;;;4.07;3.30;;;16.00;67.40;;;;;;6210738;28;20250;-84
2023/08/31 09:05:54;;;;;;;3.00;2.73;;;16.00;67.00;;;;;;6213702;28;20666;-84
2023/08/31 09:08:59;;;;;;;3.63;3.30;;;15.80;67.30;;;;;;6209856;28;20265;-85
2023/08/31 09:12:08;;;;;;;3.37;3.17;;;15.90;67.50;;;;;;6206145;28;20234;-85
2023/08/31 09:15:14;;;;;;;3.50;3.30;;;15.90;67.20;;;;;;6208564;28;20262;-85
2023/08/31 09:18:23;;;;;;;4.30;3.80;;;16.00;67.30;;;;;;6211865;28;20246;-85
2023/08/31 09:21:37;;;;;;;5.30;4.43;;;16.10;67.30;;;;;;6209205;28;20322;-86
2023/08/31 09:24:44;;;;;;;4.53;3.10;;;16.40;66.80;;;;;;6208970;28;20271;-85
2023/08/31 09:27:48;;;;;;;3.23;2.97;;;16.60;66.50;;;;;;6199986;28;20245;-83
2023/08/31 09:30:53;;;;;;;3.10;2.80;;;16.90;64.40;;;;;;6210601;28;20246;-87
2023/08/31 09:33:56;;;;;;;2.90;2.80;;;17.20;63.90;;;;;;6213239;28;20634;-84
2023/08/31 09:37:10;;;;;;;3.00;2.80;;;17.30;63.90;;;;;;6201997;28;20244;-84
2023/08/31 09:40:16;;;;;;;3.20;3.00;;;17.10;63.90;;;;;;6207509;28;20231;-85
2023/08/31 09:43:24;;;;;;;3.00;2.90;;;17.00;64.10;;;;;;6200975;28;20284;-84
2023/08/31 09:46:28;;;;;;;2.97;2.77;;;17.10;64.00;;;;;;6201425;28;20909;-84
2023/08/31 09:49:34;;;;;;;3.00;2.80;;;17.00;63.60;;;;;;6205095;28;20255;-83
2023/08/31 09:52:41;;;;;;;2.93;2.73;;;17.00;64.00;;;;;;6209111;28;20235;-77
2023/08/31 09:55:44;;;;;;;4.53;3.00;;;17.20;64.20;;;;;;6210175;28;20362;-78
2023/08/31 09:58:48;;;;;;;3.30;3.10;;;17.20;63.60;;;;;;6218681;28;20283;-76
2023/08/31 10:01:56;;;;;;;2.53;2.43;;;17.30;63.20;;;;;;6214377;28;20759;-75
2023/08/31 10:05:00;;;;;;;2.60;2.40;;;17.40;60.50;;;;;;6202348;28;20243;-85
2023/08/31 10:08:03;;;;;;;2.20;2.10;;;17.80;60.70;;;;;;6212640;28;20312;-84
2023/08/31 10:11:12;;;;;;;2.30;2.10;;;17.80;59.60;;;;;;6214434;28;20246;-83
2023/08/31 10:14:17;;;;;;;3.07;2.57;;;17.80;59.60;;;;;;6218523;28;20778;-83
2023/08/31 10:17:22;;;;;;;2.60;2.50;;;17.90;59.40;;;;;;6221406;28;20439;-84
2023/08/31 10:20:28;;;;;;;3.07;2.30;;;18.30;58.40;;;;;;6218407;28;20235;-80
2023/08/31 10:23:32;;;;;;;2.40;2.30;;;18.50;57.30;;;;;;6205641;28;20251;-76
2023/08/31 10:26:36;;;;;;;5.67;2.27;;;18.40;57.70;;;;;;6211684;28;20373;-78
2023/08/31 10:29:40;;;;;;;2.20;2.10;;;18.50;58.60;;;;;;6215062;28;20243;-76
2023/08/31 10:32:44;;;;;;;2.00;1.90;;;18.20;57.00;;;;;;6214971;28;20239;-75
2023/08/31 10:35:51;;;;;;;2.33;2.13;;;18.10;57.90;;;;;;6209185;28;20250;-78
2023/08/31 10:39:02;;;;;;;2.37;2.17;;;17.80;57.40;;;;;;6204925;28;20373;-88
2023/08/31 10:42:06;;;;;;;4.10;2.80;;;17.60;58.70;;;;;;6207596;28;20243;-83
2023/08/31 10:45:09;;;;;;;2.77;2.30;;;17.20;63.50;;;;;;6205463;28;20251;-77
2023/08/31 10:48:14;;;;;;;2.80;2.50;;;16.50;65.70;;;;;;6211332;28;20242;-82
2023/08/31 10:51:18;;;;;;;3.17;2.90;;;15.80;66.60;;;;;;6204231;28;20965;-83
2023/08/31 10:54:23;;;;;;;5.10;3.43;;;15.40;68.30;;;;;;6209926;28;20251;-83
2023/08/31 10:57:31;;;;;;;2.83;2.63;;;15.40;69.70;;;;;;6206942;28;20242;-83
2023/08/31 11:00:48;;;;;;;2.73;2.53;;;15.50;70.50;;;;;;6209607;28;20312;-84
2023/08/31 11:04:00;;;;;;;2.70;2.50;;;15.60;70.90;;;;;;6221853;28;20378;-82
2023/08/31 11:07:17;;;;;;;2.63;2.53;;;15.70;70.20;;;;;;6218979;28;20778;-82
2023/08/31 11:10:22;;;;;;;2.70;2.60;;;15.80;69.80;;;;;;6210215;28;20850;-83
2023/08/31 11:13:25;;;;;;;3.07;2.83;;;16.00;70.00;;;;;;6208762;28;20734;-83
2023/08/31 11:16:31;;;;;;;3.33;3.13;;;16.20;70.20;;;;;;6205702;28;20243;-82
2023/08/31 11:19:37;;;;;;;8.90;8.33;;;16.10;68.70;;;;;;6212379;28;20244;-83
2023/08/31 11:22:42;;;;;;;3.73;3.40;;;16.20;69.30;;;;;;6209105;28;20251;-81
2023/08/31 11:25:45;;;;;;;2.80;2.70;;;16.40;69.80;;;;;;6206990;28;20261;-74
2023/08/31 11:28:48;;;;;;;2.97;2.70;;;16.40;68.70;;;;;;6207846;28;20269;-77
2023/08/31 11:31:52;;;;;;;3.20;3.00;;;16.70;68.40;;;;;;6220604;28;20336;-75
2023/08/31 11:34:56;;;;;;;3.20;2.90;;;16.80;68.90;;;;;;6210758;28;20630;-75
2023/08/31 11:38:00;;;;;;;2.93;2.63;;;17.20;68.00;;;;;;6212764;28;20235;-81
2023/08/31 11:41:04;;;;;;;3.50;3.37;;;17.50;66.90;;;;;;6204127;28;20235;-80
2023/08/31 11:44:07;;;;;;;2.57;2.57;;;17.90;64.70;;;;;;6213502;28;20772;-80
2023/08/31 11:47:11;;;;;;;3.00;2.90;;;18.10;63.90;;;;;;6210618;28;20247;-81
2023/08/31 11:50:17;;;;;;;3.17;2.60;;;18.10;64.00;;;;;;6202622;28;20707;-82
2023/08/31 11:53:22;;;;;;;12.30;11.03;;;18.00;63.50;;;;;;6219916;28;20235;-80
2023/08/31 11:56:25;;;;;;;3.33;3.23;;;18.00;64.20;;;;;;6213638;28;20293;-80
2023/08/31 11:59:28;;;;;;;3.53;3.07;;;18.00;63.50;;;;;;6210089;28;20611;-79
2023/08/31 12:02:36;;;;;;;3.10;3.10;;;17.60;63.00;;;;;;6203418;28;20325;-80
2023/08/31 12:05:54;;;;;;;3.63;3.33;;;17.40;64.80;;;;;;6206217;28;20250;-79
2023/08/31 12:09:01;;;;;;;4.30;3.80;;;17.20;66.20;;;;;;6211461;28;20231;-80
2023/08/31 12:12:05;;;;;;;4.30;4.00;;;17.00;67.50;;;;;;6198408;28;20326;-79
2023/08/31 12:15:08;;;;;;;3.87;3.67;;;16.80;68.70;;;;;;6195896;28;20297;-79
2023/08/31 12:18:12;;;;;;;3.43;3.23;;;16.50;67.80;;;;;;6207911;28;20376;-80
2023/08/31 12:21:21;;;;;;;2.80;2.80;;;16.80;69.10;;;;;;6212886;28;20242;-79
2023/08/31 12:24:24;;;;;;;3.20;2.80;;;17.30;67.00;;;;;;6206008;28;20251;-80
2023/08/31 12:27:29;;;;;;;2.60;2.60;;;17.70;67.10;;;;;;6205409;28;20234;-81
2023/08/31 12:30:32;;;;;;;3.70;3.00;;;17.60;66.00;;;;;;6204629;28;20236;-82
2023/08/31 12:33:36;;;;;;;3.57;3.37;;;18.00;65.20;;;;;;6208957;28;20227;-80
2023/08/31 12:36:41;;;;;;;4.87;4.37;;;18.20;65.20;;;;;;6204436;28;20636;-81
2023/08/31 12:39:45;;;;;;;3.87;3.53;;;18.00;65.40;;;;;;6203499;28;20334;-80
2023/08/31 12:42:48;;;;;;;3.67;3.17;;;17.80;65.40;;;;;;6205520;28;20245;-80
2023/08/31 12:45:51;;;;;;;3.60;3.40;;;17.60;66.40;;;;;;6216412;28;20300;-80
2023/08/31 12:48:55;;;;;;;4.00;3.80;;;17.50;67.10;;;;;;6222052;28;20243;-82
2023/08/31 12:51:59;;;;;;;3.40;3.20;;;17.40;67.80;;;;;;6218203;28;20271;-82
2023/08/31 12:55:04;;;;;;;3.50;3.30;;;17.50;68.00;;;;;;6209700;28;20732;-82
2023/08/31 12:58:08;;;;;;;3.60;3.30;;;17.70;67.70;;;;;;6205492;28;20231;-80
2023/08/31 13:01:11;;;;;;;2.93;2.73;;;17.80;67.50;;;;;;6202399;28;20246;-80
2023/08/31 13:04:15;;;;;;;3.70;3.10;;;17.60;64.00;;;;;;6209857;28;20804;-81
2023/08/31 13:07:19;;;;;;;2.50;2.40;;;17.50;66.50;;;;;;6205065;28;20694;-80
2023/08/31 13:10:23;;;;;;;2.60;2.40;;;17.50;64.30;;;;;;6219713;28;20235;-81
2023/08/31 13:13:26;;;;;;;2.60;2.53;;;17.50;62.80;;;;;;6204869;28;20231;-79
2023/08/31 13:16:30;;;;;;;4.30;4.10;;;17.40;64.10;;;;;;6209979;28;20862;-80
2023/08/31 13:19:33;;;;;;;2.10;2.00;;;17.40;64.10;;;;;;6210449;28;20242;-81
2023/08/31 13:22:37;;;;;;;2.27;2.27;;;17.50;63.70;;;;;;6202581;28;20297;-80
2023/08/31 13:25:42;;;;;;;3.30;2.20;;;17.60;63.20;;;;;;6210672;28;20802;-80
2023/08/31 13:28:45;;;;;;;2.10;2.00;;;17.80;62.10;;;;;;6206023;28;20292;-80
2023/08/31 13:31:48;;;;;;;2.20;2.10;;;18.00;61.60;;;;;;6211116;28;20239;-81
2023/08/31 13:34:51;;;;;;;2.60;2.33;;;18.20;61.50;;;;;;6207857;28;20235;-81
2023/08/31 13:37:56;;;;;;;2.30;2.20;;;18.00;60.90;;;;;;6206319;28;20267;-81
2023/08/31 13:40:59;;;;;;;2.40;2.30;;;17.50;61.30;;;;;;6206261;28;20964;-81
2023/08/31 13:44:02;;;;;;;2.20;2.10;;;17.20;62.20;;;;;;6207597;28;20830;-80
2023/08/31 13:47:06;;;;;;;2.20;2.20;;;17.10;61.90;;;;;;6206173;28;20624;-80
2023/08/31 13:50:12;;;;;;;2.20;2.20;;;16.90;62.50;;;;;;6212359;28;20243;-81
2023/08/31 13:53:17;;;;;;;2.30;2.30;;;16.90;63.00;;;;;;6212966;28;20738;-80
2023/08/31 13:56:20;;;;;;;2.20;2.20;;;16.80;63.40;;;;;;6210001;28;20719;-80
2023/08/31 13:59:23;;;;;;;2.77;2.57;;;16.70;63.10;;;;;;6205078;28;20390;-81
2023/08/31 14:02:27;;;;;;;2.47;2.47;;;16.60;63.80;;;;;;6211456;28;20238;-80
2023/08/31 14:05:30;;;;;;;2.70;2.60;;;16.50;63.40;;;;;;6204270;28;20228;-81
2023/08/31 14:08:35;;;;;;;2.60;2.40;;;16.40;63.90;;;;;;6210766;28;20250;-80
2023/08/31 14:11:38;;;;;;;3.40;3.30;;;16.30;63.20;;;;;;6206627;28;20270;-82
2023/08/31 14:14:42;;;;;;;2.50;2.40;;;16.40;63.20;;;;;;6209556;28;20313;-81
2023/08/31 14:17:45;;;;;;;2.40;2.40;;;16.50;63.50;;;;;;6199927;28;20619;-79
2023/08/31 14:20:48;;;;;;;2.70;2.50;;;16.40;63.90;;;;;;6204949;28;20239;-82
2023/08/31 14:23:55;;;;;;;2.43;2.33;;;16.40;64.50;;;;;;6201634;28;20243;-80
2023/08/31 14:26:58;;;;;;;2.40;2.40;;;16.60;64.60;;;;;;6205060;28;20843;-78
2023/08/31 14:30:05;;;;;;;2.73;2.57;;;16.60;63.40;;;;;;6212294;28;20776;-80
2023/08/31 14:33:09;;;;;;;2.00;1.90;;;16.70;63.50;;;;;;6200923;28;20227;-78
2023/08/31 14:36:13;;;;;;;2.40;2.30;;;16.80;61.00;;;;;;6205425;28;20322;-79
2023/08/31 14:39:18;;;;;;;1.87;1.83;;;16.50;62.20;;;;;;6207928;28;20245;-81
2023/08/31 14:42:21;;;;;;;1.87;1.87;;;16.50;62.50;;;;;;6205770;28;20254;-80
2023/08/31 14:45:24;;;;;;;2.00;1.90;;;16.50;62.20;;;;;;6217496;28;20270;-79
2023/08/31 14:48:27;;;;;;;3.30;2.00;;;16.40;60.70;;;;;;6218176;28;20239;-80
2023/08/31 14:51:30;;;;;;;1.60;1.60;;;16.40;61.10;;;;;;6216738;28;20231;-81
2023/08/31 14:54:35;;;;;;;1.70;1.60;;;16.40;60.90;;;;;;6212969;28;20317;-80
2023/08/31 14:57:41;;;;;;;1.60;1.50;;;16.70;60.50;;;;;;6224820;28;20314;-80
2023/08/31 15:00:45;;;;;;;1.70;1.70;;;17.00;59.80;;;;;;6209707;28;20603;-81
2023/08/31 15:03:50;;;;;;;2.00;2.00;;;17.10;58.70;;;;;;6214905;28;20247;-78
2023/08/31 15:06:55;;;;;;;2.20;2.10;;;17.10;59.00;;;;;;6220712;28;20232;-79
2023/08/31 15:10:01;;;;;;;2.20;2.20;;;17.00;59.80;;;;;;6210950;28;20240;-78
2023/08/31 15:13:05;;;;;;;2.03;1.87;;;16.90;60.10;;;;;;6211175;28;20842;-82
2023/08/31 15:16:08;;;;;;;2.30;2.10;;;16.70;60.70;;;;;;6213525;28;20616;-77
2023/08/31 15:19:11;;;;;;;4.27;2.10;;;16.70;61.50;;;;;;6215898;28;20251;-80
2023/08/31 15:22:14;;;;;;;2.23;2.03;;;16.70;61.00;;;;;;6214018;28;20239;-78
2023/08/31 15:25:19;;;;;;;2.23;2.13;;;16.80;60.70;;;;;;6207284;28;20633;-78
2023/08/31 15:28:22;;;;;;;2.23;2.10;;;16.80;60.80;;;;;;6205832;28;20399;-80
2023/08/31 15:31:26;;;;;;;2.47;2.37;;;17.00;60.90;;;;;;6210978;28;20310;-79
2023/08/31 15:34:30;;;;;;;2.23;2.13;;;17.20;60.50;;;;;;6211172;28;20232;-76
2023/08/31 15:37:33;;;;;;;2.00;2.00;;;17.10;60.80;;;;;;6209841;28;20349;-80
2023/08/31 15:40:38;;;;;;;4.73;2.23;;;17.00;60.10;;;;;;6215901;28;20239;-82
2023/08/31 15:43:42;;;;;;;2.07;1.97;;;16.90;60.70;;;;;;6214970;28;20354;-77
2023/08/31 15:46:46;;;;;;;3.60;2.37;;;16.50;61.20;;;;;;6207988;28;20231;-77
2023/08/31 15:49:55;;;;;;;2.20;2.20;;;16.40;61.50;;;;;;6216703;28;20239;-75
2023/08/31 15:52:58;;;;;;;3.47;2.00;;;16.50;61.40;;;;;;6204063;28;20321;-75
2023/08/31 15:56:04;;;;;;;2.10;1.87;;;16.60;61.20;;;;;;6195650;28;20239;-75
2023/08/31 15:59:07;;;;;;;2.43;2.23;;;16.60;60.30;;;;;;6192597;28;20246;-78
2023/08/31 16:02:11;;;;;;;1.83;1.83;;;16.50;60.40;;;;;;6190628;28;20421;-78
2023/08/31 16:05:14;;;;;;;2.10;2.10;;;16.40;60.40;;;;;;6192085;28;20275;-78
2023/08/31 16:08:18;;;;;;;1.83;1.83;;;16.00;61.00;;;;;;6193546;28;20255;-79
2023/08/31 16:11:24;;;;;;;2.17;2.07;;;16.00;61.60;;;;;;6197958;28;20837;-75
2023/08/31 16:14:28;;;;;;;2.20;2.17;;;16.00;61.70;;;;;;6210461;28;20727;-76